Time;durP1;ratioP1;P1;durP2;ratioP2;P2;SDS_P1;SDS_P2;PMS_P1;PMS_P2;Temp;Humidity;BMP_temperature;BMP_pressure;BME280_temperature;BME280_humidity;BME280_pressure;Samples;Min_cycle;Max_cycle;Signal;HPM_P1;HPM_P2
2023/09/13 02:25:28;;;;;;;19.80;15.70;;;;;;;19.44;72.77;98733.13;231436;223;697164;-64
2023/09/13 02:30:39;;;;;;;21.20;13.80;;;;;;;19.37;73.05;98733.46;232236;220;138104;-65
2023/09/13 02:35:47;;;;;;;19.90;14.10;;;;;;;19.33;72.97;98734.34;232346;219;145036;-66
2023/09/13 02:40:50;;;;;;;19.70;15.30;;;;;;;19.33;73.11;98735.23;232598;218;139165;-67
2023/09/13 02:45:54;;;;;;;24.40;16.30;;;;;;;19.32;72.98;98729.34;232443;218;138779;-67
2023/09/13 02:51:00;;;;;;;20.50;15.00;;;;;;;19.27;72.99;98728.58;232564;213;143951;-65
2023/09/13 02:56:07;;;;;;;22.60;15.70;;;;;;;19.22;73.02;98732.27;232629;214;139775;-64
2023/09/13 03:01:11;;;;;;;23.00;15.40;;;;;;;19.15;73.20;98731.85;232615;214;137581;-65
2023/09/13 03:06:18;;;;;;;20.20;15.10;;;;;;;19.06;73.23;98728.77;232606;213;144019;-62
2023/09/13 03:11:25;;;;;;;22.20;13.40;;;;;;;19.00;73.42;98726.70;232710;213;138679;-64
2023/09/13 03:16:35;;;;;;;21.30;14.60;;;;;;;18.98;73.44;98722.04;232739;215;137092;-63
2023/09/13 03:21:44;;;;;;;19.70;15.20;;;;;;;18.99;73.47;98723.09;232657;214;145486;-64
2023/09/13 03:26:49;;;;;;;18.70;14.90;;;;;;;18.97;73.58;98718.77;232575;214;138822;-70
2023/09/13 03:31:54;;;;;;;22.50;15.00;;;;;;;18.90;73.52;98723.60;232569;214;139785;-69
2023/09/13 03:37:01;;;;;;;25.00;15.10;;;;;;;18.85;73.54;98719.01;232714;215;147765;-71
2023/09/13 03:42:06;;;;;;;19.10;13.80;;;;;;;18.80;73.65;98722.30;232520;214;139421;-64
2023/09/13 03:47:12;;;;;;;23.40;13.60;;;;;;;18.74;73.82;98720.02;232876;214;138656;-65
2023/09/13 03:52:19;;;;;;;23.60;15.50;;;;;;;18.72;73.80;98715.21;232706;214;147437;-63
2023/09/13 03:57:24;;;;;;;21.40;15.50;;;;;;;18.68;73.91;98715.15;232751;214;139099;-62
2023/09/13 04:02:29;;;;;;;18.00;14.20;;;;;;;18.69;74.03;98719.08;232739;214;137894;-62
2023/09/13 04:07:36;;;;;;;19.70;14.50;;;;;;;18.66;74.20;98720.39;232784;214;145862;-62
2023/09/13 04:12:42;;;;;;;21.80;14.30;;;;;;;18.62;74.36;98717.95;232658;214;138589;-57
2023/09/13 04:17:46;;;;;;;22.40;14.60;;;;;;;18.59;74.57;98713.41;232792;215;139248;-65
2023/09/13 04:22:50;;;;;;;21.20;15.40;;;;;;;18.58;74.59;98721.58;232783;214;147408;-63
2023/09/13 04:27:55;;;;;;;;;;;;;;;18.60;74.70;98718.29;232651;214;139676;-65
2023/09/13 04:33:02;;;;;;;22.50;15.00;;;;;;;18.60;74.88;98718.65;232743;215;133614;-61
2023/09/13 04:38:07;;;;;;;;;;;;;;;18.59;74.81;98719.63;232695;214;145396;-62
2023/09/13 04:43:12;;;;;;;213.90;132.10;;;;;;;18.58;75.07;98722.49;232796;214;139410;-65
2023/09/13 04:48:16;;;;;;;29.80;20.40;;;;;;;18.55;75.48;98715.08;232581;214;137111;-66
2023/09/13 04:53:20;;;;;;;545.90;486.70;;;;;;;18.52;75.69;98715.69;232756;214;146233;-73
2023/09/13 04:58:25;;;;;;;25.10;19.10;;;;;;;18.61;75.66;98715.69;232704;214;139431;-69
2023/09/13 05:03:35;;;;;;;25.30;16.30;;;;;;;18.72;75.25;98718.62;232686;214;137521;-68
2023/09/13 05:08:39;;;;;;;79.50;59.90;;;;;;;18.79;75.06;98720.95;232752;215;146191;-65
2023/09/13 05:13:49;;;;;;;40.60;29.40;;;;;;;19.04;75.63;98721.48;232639;214;138912;-65
2023/09/13 05:18:53;;;;;;;22.40;15.50;;;;;;;19.08;74.75;98718.66;232754;215;136834;-68
2023/09/13 05:24:00;;;;;;;90.60;56.10;;;;;;;19.07;74.70;98721.47;232732;214;147009;-67
2023/09/13 05:29:05;;;;;;;45.60;32.40;;;;;;;19.12;74.64;98724.59;232755;214;138588;-69
2023/09/13 05:34:09;;;;;;;25.50;16.30;;;;;;;19.23;74.52;98728.30;232708;214;138270;-68
2023/09/13 05:39:12;;;;;;;27.40;15.90;;;;;;;19.28;74.71;98723.82;232702;214;145481;-64
2023/09/13 05:44:29;;;;;;;35.00;22.90;;;;;;;19.34;74.87;98723.02;232697;214;142545;-60
2023/09/13 05:49:33;;;;;;;30.10;22.00;;;;;;;19.40;74.95;98717.73;232530;214;139271;-67
2023/09/13 05:54:38;;;;;;;26.00;15.50;;;;;;;19.48;75.05;98711.13;232681;215;145846;-65
2023/09/13 05:59:42;;;;;;;23.30;15.90;;;;;;;19.61;75.15;98716.82;232873;214;138886;-67
2023/09/13 06:04:48;;;;;;;20.50;15.60;;;;;;;19.75;74.92;98716.83;232592;214;137635;-65
2023/09/13 06:09:54;;;;;;;25.90;15.50;;;;;;;19.85;74.86;98713.83;232684;214;146083;-66
2023/09/13 06:15:02;;;;;;;22.40;15.80;;;;;;;19.92;74.81;98717.15;232640;215;140605;-66
2023/09/13 06:20:07;;;;;;;25.50;14.90;;;;;;;20.00;74.82;98719.03;232780;214;139496;-65
2023/09/13 06:25:12;;;;;;;21.20;14.20;;;;;;;20.13;74.84;98722.66;232605;214;147180;-65
2023/09/13 06:30:19;;;;;;;26.40;15.10;;;;;;;20.31;74.73;98729.02;232730;214;138938;-61
2023/09/13 06:35:23;;;;;;;36.90;15.70;;;;;;;20.51;74.67;98728.87;232810;214;138465;-63
2023/09/13 06:40:29;;;;;;;323.50;261.30;;;;;;;20.73;74.54;98725.25;232739;214;145658;-62
2023/09/13 06:45:41;;;;;;;39.20;25.90;;;;;;;20.99;73.91;98724.89;232713;215;139091;-64
2023/09/13 06:51:09;;;;;;;29.90;14.20;;;;;;;21.23;73.35;98723.02;232675;214;139707;-64
2023/09/13 06:56:35;;;;;;;24.60;13.40;;;;;;;21.42;72.94;98728.64;232781;214;146552;-64
2023/09/13 07:01:45;;;;;;;24.60;13.10;;;;;;;21.58;71.64;98729.02;232723;215;140108;-64
2023/09/13 07:07:13;;;;;;;27.30;13.80;;;;;;;21.84;70.59;98732.91;232663;215;141050;-65
2023/09/13 07:12:18;;;;;;;;;;;;;;;22.04;69.34;98732.42;232650;214;145615;-64
2023/09/13 07:17:29;;;;;;;22.10;10.20;;;;;;;22.12;68.17;98732.28;232866;214;141660;-63
2023/09/13 07:22:35;;;;;;;119.90;96.80;;;;;;;22.24;68.10;98736.25;232780;214;140588;-65
2023/09/13 07:27:41;;;;;;;29.10;14.10;;;;;;;22.42;68.19;98741.61;232673;214;147516;-67
2023/09/13 07:32:49;;;;;;;;;;;;;;;22.52;68.06;98743.18;232703;215;138737;-62
2023/09/13 07:37:55;;;;;;;24.10;16.40;;;;;;;22.64;67.24;98741.76;232802;215;131130;-64
2023/09/13 07:43:01;;;;;;;110.50;93.50;;;;;;;22.75;66.15;98740.66;232483;214;145629;-65
2023/09/13 07:48:08;;;;;;;30.40;15.20;;;;;;;22.88;65.33;98739.98;232656;214;140427;-64
2023/09/13 07:53:12;;;;;;;32.30;10.80;;;;;;;23.06;64.79;98744.59;232870;214;138384;-61
2023/09/13 07:58:16;;;;;;;22.10;10.90;;;;;;;23.24;63.60;98743.39;232645;214;146356;-66
2023/09/13 08:03:20;;;;;;;24.40;11.50;;;;;;;23.38;62.96;98748.92;232674;215;138898;-63
2023/09/13 08:08:25;;;;;;;23.50;10.90;;;;;;;23.52;62.61;98747.51;232676;215;140856;-64
2023/09/13 08:13:31;;;;;;;22.30;10.00;;;;;;;23.65;61.76;98738.08;232745;214;146075;-64
2023/09/13 08:18:37;;;;;;;18.20;10.60;;;;;;;23.79;61.44;98734.07;232662;214;138993;-67
2023/09/13 08:23:42;;;;;;;17.60;9.70;;;;;;;23.89;60.49;98728.35;232779;214;137504;-67
2023/09/13 08:28:49;;;;;;;20.10;8.40;;;;;;;24.02;60.22;98729.45;232685;215;145626;-63
2023/09/13 08:33:56;;;;;;;16.30;8.00;;;;;;;24.18;58.39;98727.61;232730;215;138765;-65
2023/09/13 08:39:01;;;;;;;21.00;7.80;;;;;;;24.33;57.50;98731.05;232719;215;138401;-62
2023/09/13 08:44:06;;;;;;;22.70;7.60;;;;;;;24.47;56.50;98730.59;232647;214;145822;-66
2023/09/13 08:49:10;;;;;;;;;;;;;;;24.59;55.81;98724.86;232652;215;138907;-67
2023/09/13 08:54:15;;;;;;;18.40;7.10;;;;;;;24.74;55.45;98727.36;232607;214;131021;-61
2023/09/13 09:18:02;;;;;;;18.20;9.10;;;;;;;25.57;53.43;98715.70;231780;223;724109;-62
2023/09/13 09:23:07;;;;;;;16.10;8.10;;;;;;;25.75;53.62;98712.42;232299;219;137831;-62
2023/09/13 09:28:10;;;;;;;17.30;7.60;;;;;;;25.89;52.95;98708.98;232613;213;143875;-63
2023/09/13 09:33:14;;;;;;;12.80;7.40;;;;;;;26.03;52.69;98707.48;232551;214;139445;-62
2023/09/13 09:38:24;;;;;;;15.40;7.80;;;;;;;26.17;52.67;98703.92;232522;213;136929;-63
2023/09/13 09:43:30;;;;;;;12.50;7.50;;;;;;;26.29;52.42;98702.26;232527;214;144087;-62
2023/09/13 09:48:34;;;;;;;11.80;7.60;;;;;;;26.41;51.76;98701.70;232650;214;139208;-63
2023/09/13 09:53:42;;;;;;;16.60;7.80;;;;;;;26.53;51.68;98700.85;232761;213;136838;-62
2023/09/13 09:58:47;;;;;;;9.90;7.10;;;;;;;26.72;51.34;98689.92;232658;213;144767;-59
2023/09/13 10:03:56;;;;;;;10.80;6.70;;;;;;;26.91;50.89;98692.23;232669;214;139442;-63
2023/09/13 10:09:04;;;;;;;13.40;7.40;;;;;;;27.16;50.28;98690.09;232516;213;137728;-60
2023/09/13 10:14:08;;;;;;;14.20;6.90;;;;;;;27.41;50.15;98694.10;232472;213;145496;-63
2023/09/13 10:19:13;;;;;;;25.20;12.30;;;;;;;27.64;49.21;98687.28;232574;213;138916;-61
2023/09/13 10:24:20;;;;;;;;;;;;;;;27.82;48.79;98679.70;232707;213;138602;-60
2023/09/13 10:29:53;;;;;;;17.20;7.50;;;;;;;27.97;47.51;98677.45;232723;214;147969;-63
2023/09/13 10:35:03;;;;;;;18.10;8.70;;;;;;;28.16;47.84;98670.00;232676;214;140991;-61
2023/09/13 10:40:28;;;;;;;15.30;7.40;;;;;;;28.32;47.60;98669.42;232804;207;153815;-61
2023/09/13 10:45:36;;;;;;;14.70;7.80;;;;;;;28.46;46.34;98668.78;232531;214;146551;-63
2023/09/13 10:50:41;;;;;;;12.70;7.30;;;;;;;28.50;46.15;98672.20;232678;214;138636;-65
2023/09/13 10:55:47;;;;;;;13.10;7.10;;;;;;;28.44;45.57;98671.67;232731;214;137600;-61
2023/09/13 11:00:55;;;;;;;19.10;7.30;;;;;;;28.48;45.64;98669.71;232528;214;147445;-60
2023/09/13 11:06:00;;;;;;;11.90;7.20;;;;;;;28.67;45.16;98670.52;232652;214;140509;-60
2023/09/13 11:11:18;;;;;;;13.00;6.70;;;;;;;28.81;45.03;98669.98;232499;214;137455;-62
2023/09/13 11:16:23;;;;;;;14.60;7.80;;;;;;;29.02;44.72;98668.29;232690;214;147462;-60
2023/09/13 11:21:57;;;;;;;10.90;7.10;;;;;;;29.23;45.05;98661.27;232625;214;138888;-60
2023/09/13 12:19:25;;;;;;;11.00;6.50;;;;;;;31.04;37.87;98653.76;231350;224;723616;-60
2023/09/13 12:24:30;;;;;;;10.00;6.30;;;;;;;31.06;37.37;98658.20;232723;218;136300;-61
2023/09/13 12:29:44;;;;;;;9.10;6.40;;;;;;;31.05;37.04;98657.48;232877;216;144743;-61
2023/09/13 12:34:48;;;;;;;10.00;6.60;;;;;;;31.09;36.91;98656.77;232785;215;139407;-59
2023/09/13 12:39:55;;;;;;;8.60;6.90;;;;;;;31.04;37.21;98655.04;232825;216;137466;-61
2023/09/13 12:44:59;;;;;;;11.10;6.60;;;;;;;31.15;37.00;98650.90;232768;216;143734;-60
2023/09/13 12:50:09;;;;;;;7.60;5.70;;;;;;;31.29;34.89;98649.04;232725;215;139455;-62
2023/09/13 12:55:37;;;;;;;8.80;5.80;;;;;;;31.60;34.73;98637.94;232834;215;139597;-61
2023/09/13 13:00:55;;;;;;;10.70;6.80;;;;;;;31.88;34.84;98633.05;232937;216;143863;-61
2023/09/13 13:06:08;;;;;;;11.60;6.50;;;;;;;31.98;34.73;98632.29;232935;215;140761;-61
2023/09/13 13:11:11;;;;;;;10.70;6.40;;;;;;;31.87;35.09;98632.21;232782;216;137598;-62
2023/09/13 13:16:19;;;;;;;11.70;6.60;;;;;;;31.81;35.02;98633.54;232744;216;148421;-62
2023/09/13 13:21:54;;;;;;;9.50;6.60;;;;;;;31.99;34.81;98629.64;232762;215;140757;-62
2023/09/13 13:27:18;;;;;;;10.00;6.40;;;;;;;32.20;34.50;98627.77;232798;214;136791;-59
2023/09/13 13:32:39;;;;;;;6.50;5.50;;;;;;;32.30;33.39;98629.19;232830;215;148344;-60
2023/09/13 13:37:46;;;;;;;9.40;6.30;;;;;;;32.47;33.70;98623.02;232886;215;138661;-60
2023/09/13 13:42:52;;;;;;;9.30;5.90;;;;;;;32.59;32.93;98619.27;232922;215;137229;-60
2023/09/13 13:47:58;;;;;;;8.30;6.20;;;;;;;32.63;32.64;98619.39;232887;215;146569;-60
2023/09/13 13:53:04;;;;;;;9.20;5.90;;;;;;;32.54;32.05;98620.50;232790;215;138868;-60
2023/09/13 13:58:10;;;;;;;13.80;6.50;;;;;;;32.31;32.79;98608.75;232768;215;136891;-60
2023/09/13 14:03:15;;;;;;;7.40;6.40;;;;;;;31.98;33.16;98605.19;232772;215;145562;-60
2023/09/13 14:08:22;;;;;;;56.10;47.70;;;;;;;31.65;33.45;98591.61;232723;215;140818;-61
2023/09/13 14:13:27;;;;;;;15.60;12.00;;;;;;;31.38;34.23;98588.53;232750;215;137603;-62
2023/09/13 14:18:35;;;;;;;9.20;6.40;;;;;;;31.09;34.03;98580.64;232818;215;145551;-61
2023/09/13 14:23:54;;;;;;;12.90;6.00;;;;;;;30.72;33.94;98580.13;232764;215;140663;-61
2023/09/13 14:28:59;;;;;;;10.90;6.30;;;;;;;30.49;34.79;98578.59;232695;215;138151;-62
2023/09/13 14:34:05;;;;;;;9.00;6.20;;;;;;;30.26;34.99;98582.64;232737;215;148445;-59
2023/09/13 14:39:11;;;;;;;9.90;5.80;;;;;;;30.10;35.22;98577.65;232700;215;139810;-61
2023/09/13 14:44:16;;;;;;;10.80;6.40;;;;;;;29.95;35.79;98573.71;232747;215;137601;-61
2023/09/13 14:49:33;;;;;;;9.00;6.40;;;;;;;29.80;36.28;98568.48;232722;214;147374;-62
2023/09/13 14:54:37;;;;;;;17.00;6.70;;;;;;;29.68;36.64;98563.73;232925;215;140573;-61
2023/09/13 14:59:42;;;;;;;10.50;6.10;;;;;;;29.59;36.45;98560.48;232764;215;137797;-61
2023/09/13 15:04:50;;;;;;;8.80;6.30;;;;;;;29.51;36.55;98562.42;232722;215;147776;-61
2023/09/13 15:09:55;;;;;;;15.70;7.10;;;;;;;29.42;37.01;98568.48;232698;215;138731;-62
2023/09/13 15:14:59;;;;;;;11.80;6.30;;;;;;;29.35;37.28;98566.14;232762;215;139775;-61
2023/09/13 15:20:08;;;;;;;11.60;6.40;;;;;;;29.27;37.22;98566.83;232728;214;145530;-62
2023/09/13 15:25:12;;;;;;;8.20;5.70;;;;;;;29.19;37.41;98568.89;232824;215;140532;-61
2023/09/13 15:30:19;;;;;;;11.00;6.70;;;;;;;29.16;37.63;98573.98;232760;215;137534;-60
2023/09/13 15:35:27;;;;;;;13.50;11.10;;;;;;;29.10;38.63;98574.67;232709;215;145964;-59
2023/09/13 15:40:32;;;;;;;9.50;7.50;;;;;;;29.04;38.63;98574.37;232671;215;140069;-60
2023/09/13 15:45:39;;;;;;;;;;;;;;;28.94;39.54;98577.33;232777;215;137336;-61
2023/09/13 15:50:45;;;;;;;15.20;8.90;;;;;;;28.84;40.33;98578.81;232815;215;145610;-61
2023/09/13 15:55:52;;;;;;;12.00;9.00;;;;;;;28.75;39.92;98572.83;232728;215;140683;-60
2023/09/13 16:00:58;;;;;;;14.50;7.10;;;;;;;28.66;40.15;98566.36;232825;215;138422;-60
2023/09/13 16:06:03;;;;;;;11.30;7.10;;;;;;;28.59;39.95;98562.55;232802;215;145740;-59
2023/09/13 16:11:08;;;;;;;9.50;7.20;;;;;;;28.51;40.02;98563.73;232691;214;139096;-62
2023/09/13 16:16:12;;;;;;;12.90;8.90;;;;;;;28.42;41.43;98560.35;232779;215;140225;-61
2023/09/13 16:21:19;;;;;;;12.90;8.00;;;;;;;28.25;43.30;98564.58;232702;215;146004;-61
2023/09/13 16:26:23;;;;;;;13.20;8.60;;;;;;;28.05;43.90;98563.72;232618;215;139125;-61
2023/09/13 16:31:29;;;;;;;10.10;7.40;;;;;;;27.89;44.70;98564.95;232882;215;137182;-60
2023/09/13 16:36:33;;;;;;;;;;;;;;;27.76;45.35;98566.23;232742;214;146389;-61
2023/09/13 16:41:42;;;;;;;13.10;7.90;;;;;;;27.57;46.09;98563.43;232758;215;140610;-59
2023/09/13 16:46:46;;;;;;;21.80;9.00;;;;;;;27.38;46.66;98568.79;232773;215;138000;-61
2023/09/13 16:51:50;;;;;;;19.00;8.20;;;;;;;27.21;47.29;98575.27;232657;215;145658;-62
2023/09/13 16:56:54;;;;;;;;;;;;;;;26.98;48.42;98592.80;232704;215;141177;-60
2023/09/13 17:01:59;;;;;;;453.10;390.50;;;;;;;26.77;49.28;98600.95;232671;215;131125;-63
2023/09/13 17:07:06;;;;;;;32.30;21.40;;;;;;;26.66;50.03;98606.25;232768;215;146657;-58
2023/09/13 17:12:11;;;;;;;17.40;10.70;;;;;;;26.55;50.60;98618.88;232703;214;141346;-60
2023/09/13 17:17:23;;;;;;;20.40;9.30;;;;;;;26.46;51.02;98622.33;232637;214;137599;-59
2023/09/13 17:22:26;;;;;;;13.90;8.90;;;;;;;26.37;51.24;98622.94;232689;214;146139;-61
2023/09/13 17:27:32;;;;;;;19.50;9.20;;;;;;;26.29;51.95;98623.68;232692;214;138779;-59
2023/09/13 17:32:36;;;;;;;16.20;9.00;;;;;;;26.22;52.43;98617.83;232586;214;137951;-61
2023/09/13 17:37:43;;;;;;;14.50;9.50;;;;;;;26.14;52.69;98625.39;232752;214;145634;-61
2023/09/13 17:42:48;;;;;;;23.90;10.70;;;;;;;26.06;53.25;98632.29;232756;214;138863;-59
2023/09/13 17:47:54;;;;;;;20.50;11.50;;;;;;;25.99;53.76;98634.23;232613;214;138401;-61
2023/09/13 17:52:58;;;;;;;16.20;10.90;;;;;;;25.91;54.24;98636.32;232752;214;146762;-62
2023/09/13 17:58:03;;;;;;;14.80;9.40;;;;;;;25.85;53.77;98634.40;232542;214;138852;-61
2023/09/13 18:03:08;;;;;;;15.20;9.00;;;;;;;25.92;52.26;98640.01;232591;214;138634;-62
2023/09/13 18:08:14;;;;;;;16.90;12.00;;;;;;;26.03;51.83;98639.67;232534;214;145511;-62
2023/09/13 18:13:18;;;;;;;16.40;9.70;;;;;;;26.12;51.51;98641.34;232794;214;138985;-59
2023/09/13 18:18:25;;;;;;;15.70;9.40;;;;;;;26.19;51.34;98638.46;232629;214;137875;-60
2023/09/13 18:23:35;;;;;;;18.50;9.70;;;;;;;26.24;51.27;98631.06;232671;215;145450;-60
2023/09/13 19:18:33;;;;;;;19.30;10.70;;;;;;;25.97;52.67;98644.52;231911;220;725130;-63
2023/09/13 19:23:42;;;;;;;19.70;11.10;;;;;;;25.83;53.08;98638.54;232304;219;137347;-63
2023/09/13 19:28:54;;;;;;;17.70;10.70;;;;;;;25.73;53.18;98642.86;232284;219;143973;-60
2023/09/13 19:33:59;;;;;;;20.30;10.50;;;;;;;25.65;53.61;98650.29;232353;218;138800;-62
2023/09/13 19:39:05;;;;;;;17.70;11.50;;;;;;;25.54;53.78;98655.05;232865;216;136574;-63
2023/09/13 19:44:09;;;;;;;18.00;11.70;;;;;;;25.46;54.26;98665.86;232938;216;145678;-59
2023/09/13 19:49:14;;;;;;;19.40;12.20;;;;;;;25.37;54.83;98672.34;233012;216;140417;-63
2023/09/13 19:54:20;;;;;;;52.10;42.40;;;;;;;25.30;55.28;98681.38;232885;216;137783;-62
2023/09/13 19:59:25;;;;;;;19.20;12.90;;;;;;;25.25;55.62;98685.62;232551;213;145244;-64
2023/09/13 20:04:32;;;;;;;24.80;12.60;;;;;;;25.27;55.50;98687.09;232629;213;139340;-65
2023/09/13 20:09:37;;;;;;;263.30;234.90;;;;;;;25.31;55.74;98690.45;232477;214;138360;-64
2023/09/13 20:14:43;;;;;;;27.60;21.10;;;;;;;25.29;55.92;98708.62;232471;213;146501;-62
2023/09/13 20:19:50;;;;;;;20.10;14.30;;;;;;;25.25;56.05;98718.52;232634;214;139195;-64
2023/09/13 20:24:53;;;;;;;19.70;14.50;;;;;;;25.23;56.00;98720.61;232572;214;136738;-64
2023/09/13 20:30:02;;;;;;;19.70;11.60;;;;;;;25.19;55.93;98729.92;232708;214;147987;-64
2023/09/13 20:35:06;;;;;;;20.50;12.20;;;;;;;25.15;55.98;98755.26;232512;214;138741;-62
2023/09/13 20:40:11;;;;;;;19.60;11.80;;;;;;;25.07;55.93;98771.50;232556;214;138232;-63
2023/09/13 20:45:15;;;;;;;38.40;33.90;;;;;;;25.02;56.09;98771.13;232608;214;146168;-63
2023/09/13 20:50:19;;;;;;;20.90;11.10;;;;;;;24.89;55.40;98776.77;232634;214;138790;-61
2023/09/13 20:55:23;;;;;;;14.30;9.60;;;;;;;24.81;55.01;98777.98;232711;214;137120;-64
2023/09/13 21:00:29;;;;;;;17.90;9.80;;;;;;;24.77;55.01;98781.89;232520;214;145697;-67
2023/09/13 21:05:34;;;;;;;10.90;7.40;;;;;;;24.68;54.24;98793.02;232558;214;258526;-63
2023/09/13 21:10:38;;;;;;;16.10;7.00;;;;;;;24.56;53.49;98807.50;232635;214;136917;-65
2023/09/13 21:15:49;;;;;;;9.50;6.70;;;;;;;24.47;53.14;98813.66;232612;214;145740;-64
2023/09/13 21:20:58;;;;;;;7.40;5.80;;;;;;;24.35;53.17;98817.45;232530;214;139615;-65
2023/09/13 21:26:02;;;;;;;;;;;;;;;24.26;53.25;98822.32;232661;214;136951;-62
2023/09/13 21:31:06;;;;;;;11.20;6.50;;;;;;;24.16;53.30;98839.13;232627;214;145570;-64
2023/09/13 21:36:12;;;;;;;8.10;5.50;;;;;;;24.10;53.43;98848.02;232592;213;138817;-63
2023/09/13 21:41:17;;;;;;;6.40;5.70;;;;;;;24.05;53.86;98834.70;232588;214;137339;-63
2023/09/13 21:46:21;;;;;;;7.60;6.00;;;;;;;23.97;53.98;98827.67;232513;213;145161;-63
2023/09/13 21:51:38;;;;;;;12.10;5.80;;;;;;;23.90;54.27;98826.27;232421;213;138682;-64
2023/09/13 21:56:44;;;;;;;8.80;5.80;;;;;;;23.79;54.64;98821.89;232497;213;136775;-64
2023/09/13 22:01:52;;;;;;;9.10;5.60;;;;;;;23.73;54.80;98819.77;232727;213;145878;-63
2023/09/13 22:09:19;;;;;;;10.20;5.70;;;;;;;23.64;55.14;98817.05;231289;225;735271;-64
2023/09/13 22:14:24;;;;;;;9.50;4.90;;;;;;;23.56;55.32;98837.90;232923;216;136522;-64
2023/09/13 22:19:30;;;;;;;6.10;4.70;;;;;;;23.51;55.53;98848.64;232856;216;145232;-64
2023/09/13 22:24:36;;;;;;;7.60;5.10;;;;;;;23.44;55.66;98856.50;232867;216;140783;-65
2023/09/13 22:29:46;;;;;;;7.60;4.60;;;;;;;23.40;56.00;98868.05;232901;216;137452;-64
2023/09/13 22:34:53;;;;;;;9.40;5.90;;;;;;;23.38;56.06;98878.25;232858;216;145190;-64
2023/09/13 22:40:01;;;;;;;8.20;5.80;;;;;;;23.32;56.55;98872.16;232983;216;138922;-63
2023/09/13 22:45:05;;;;;;;9.20;6.00;;;;;;;23.28;56.95;98868.86;232986;216;137265;-63
2023/09/13 22:50:09;;;;;;;9.90;5.60;;;;;;;23.23;57.31;98869.79;232970;216;143740;-63
2023/09/13 22:55:13;;;;;;;8.90;6.10;;;;;;;23.21;57.64;98879.19;232881;216;140239;-63
2023/09/13 23:00:20;;;;;;;10.80;5.50;;;;;;;23.19;58.14;98884.32;232956;216;136912;-62
2023/09/13 23:05:23;;;;;;;9.30;5.60;;;;;;;23.08;58.74;98895.68;232841;216;146565;-63
2023/09/13 23:10:28;;;;;;;9.10;6.00;;;;;;;22.96;59.39;98894.69;232873;216;138976;-63
2023/09/13 23:15:33;;;;;;;8.10;5.80;;;;;;;22.88;59.93;98893.59;232890;216;137308;-63
2023/09/13 23:20:38;;;;;;;9.20;6.00;;;;;;;22.79;60.39;98887.55;232967;216;146076;-63
2023/09/13 23:25:53;;;;;;;8.30;6.60;;;;;;;22.70;61.14;98882.22;232851;216;138965;-63
2023/09/13 23:31:21;;;;;;;11.50;7.20;;;;;;;22.59;62.00;98875.25;232800;216;137093;-61
2023/09/13 23:36:24;;;;;;;10.80;7.10;;;;;;;22.54;62.33;98877.00;233015;216;146725;-63
2023/09/13 23:41:31;;;;;;;10.00;6.60;;;;;;;22.49;63.06;98877.86;232925;216;139317;-63
2023/09/13 23:46:38;;;;;;;8.50;7.20;;;;;;;22.46;63.41;98873.38;232904;217;137526;-63
2023/09/13 23:51:43;;;;;;;9.80;6.90;;;;;;;22.40;63.94;98880.91;232920;215;146973;-57
2023/09/13 23:56:46;;;;;;;10.70;6.80;;;;;;;22.35;64.40;98884.72;232995;216;138711;-61
